createdAt,value
2023-05-06T00:00:13.018Z,14.12
2023-05-06T00:02:41.948Z,14.09
2023-05-06T00:05:10.850Z,14.07
2023-05-06T00:07:39.253Z,14.07
2023-05-06T00:10:08.063Z,14.05
2023-05-06T00:12:36.601Z,14.02
2023-05-06T00:15:06.258Z,14.02
2023-05-06T00:17:34.533Z,14.00
2023-05-06T00:20:03.772Z,14.00
2023-05-06T00:22:32.323Z,13.96
2023-05-06T00:25:00.803Z,13.92
2023-05-06T00:27:29.375Z,13.88
2023-05-06T00:29:59.242Z,13.86
2023-05-06T00:32:27.768Z,13.85
2023-05-06T00:34:56.255Z,13.84
2023-05-06T00:37:24.825Z,13.83
2023-05-06T00:39:52.945Z,13.81
2023-05-06T00:42:22.626Z,13.80
2023-05-06T00:44:51.846Z,13.78
2023-05-06T00:47:20.871Z,13.77
2023-05-06T00:49:49.761Z,13.75
2023-05-06T00:52:20.269Z,13.72
2023-05-06T00:54:48.818Z,13.68
2023-05-06T00:57:17.343Z,13.65
2023-05-06T00:59:45.577Z,13.63
2023-05-06T01:02:14.042Z,13.61
2023-05-06T01:04:42.883Z,13.60
2023-05-06T01:07:57.647Z,13.61
2023-05-06T01:10:46.596Z,13.59
2023-05-06T01:14:08.398Z,13.58
2023-05-06T01:16:41.385Z,13.57
2023-05-06T01:19:13.884Z,13.56
2023-05-06T01:21:46.624Z,13.55
2023-05-06T01:24:14.693Z,13.55
2023-05-06T01:26:44.075Z,13.54
2023-05-06T01:29:13.362Z,13.52
2023-05-06T01:31:50.066Z,13.54
2023-05-06T01:34:39.103Z,13.53
2023-05-06T01:37:31.565Z,13.53
2023-05-06T01:40:01.557Z,13.53
2023-05-06T01:42:31.460Z,13.51
2023-05-06T01:45:03.638Z,13.50
2023-05-06T01:47:32.212Z,13.50
2023-05-06T01:50:01.137Z,13.49
2023-05-06T01:52:29.683Z,13.51
2023-05-06T01:54:58.441Z,13.49
2023-05-06T01:57:27.526Z,13.49
2023-05-06T01:59:56.030Z,13.48
2023-05-06T02:02:25.246Z,13.48
2023-05-06T02:04:54.746Z,13.47
2023-05-06T02:07:22.871Z,13.46
2023-05-06T02:09:51.352Z,13.45
2023-05-06T02:12:19.912Z,13.44
2023-05-06T02:14:48.442Z,13.44
2023-05-06T02:17:16.602Z,13.42
2023-05-06T02:19:45.028Z,13.39
2023-05-06T02:22:13.472Z,13.39
2023-05-06T02:24:42.088Z,13.40
2023-05-06T02:27:10.525Z,13.39
2023-05-06T02:29:39.032Z,13.37
2023-05-06T02:32:07.438Z,13.36
2023-05-06T02:34:35.883Z,13.34
2023-05-06T02:37:04.542Z,13.34
2023-05-06T02:39:33.008Z,13.35
2023-05-06T02:42:02.582Z,13.34
2023-05-06T02:44:31.156Z,13.34
2023-05-06T02:46:59.676Z,13.32
2023-05-06T02:49:28.117Z,13.30
2023-05-06T02:51:57.177Z,13.29
2023-05-06T02:54:27.312Z,13.29
2023-05-06T02:56:55.913Z,13.27
2023-05-06T02:59:24.735Z,13.27
2023-05-06T03:01:53.199Z,13.27
2023-05-06T03:04:22.563Z,13.27
2023-05-06T03:06:51.322Z,13.27
2023-05-06T03:09:19.845Z,13.25
2023-05-06T03:11:48.306Z,13.24
2023-05-06T03:14:16.960Z,13.22
2023-05-06T03:16:45.440Z,13.22
2023-05-06T03:19:14.051Z,13.22
2023-05-06T03:21:42.669Z,13.20
2023-05-06T03:24:11.539Z,13.19
2023-05-06T03:26:40.077Z,13.16
2023-05-06T03:29:08.215Z,13.12
2023-05-06T03:31:36.762Z,13.08
2023-05-06T03:34:05.236Z,13.04
2023-05-06T03:36:33.409Z,13.00
2023-05-06T03:39:01.879Z,12.95
2023-05-06T03:41:30.659Z,12.94
2023-05-06T03:43:59.126Z,12.94
2023-05-06T03:46:27.721Z,12.95
2023-05-06T03:48:55.870Z,12.95
2023-05-06T03:51:24.422Z,12.95
2023-05-06T03:53:54.733Z,12.94
2023-05-06T03:56:24.082Z,12.92
2023-05-06T03:58:54.162Z,12.90
2023-05-06T04:01:22.748Z,12.87
2023-05-06T04:03:52.070Z,12.84
2023-05-06T04:06:20.626Z,12.86
2023-05-06T04:08:48.792Z,12.84
2023-05-06T04:11:17.260Z,12.86
2023-05-06T04:13:45.689Z,12.86
2023-05-06T04:16:14.749Z,12.85
2023-05-06T04:18:44.097Z,12.85
2023-05-06T04:21:13.052Z,12.84
2023-05-06T04:23:41.596Z,12.85
2023-05-06T04:26:10.053Z,12.86
2023-05-06T04:28:38.577Z,12.87
2023-05-06T04:31:08.655Z,12.90
2023-05-06T04:33:37.251Z,12.92
2023-05-06T04:36:05.909Z,12.97
2023-05-06T04:38:34.019Z,12.99
2023-05-06T04:41:02.623Z,12.99
2023-05-06T04:43:31.120Z,13.03
2023-05-06T04:45:59.605Z,13.07
2023-05-06T04:48:27.867Z,13.10
2023-05-06T04:50:56.025Z,13.11
2023-05-06T04:53:24.482Z,13.12
2023-05-06T04:55:52.747Z,13.17
2023-05-06T04:58:21.218Z,13.21
2023-05-06T05:00:49.752Z,13.21
2023-05-06T05:03:18.312Z,13.23
2023-05-06T05:05:46.458Z,13.28
2023-05-06T05:08:14.975Z,13.29
2023-05-06T05:10:43.935Z,13.33
2023-05-06T05:13:12.569Z,13.35
2023-05-06T05:15:40.793Z,13.39
2023-05-06T05:18:09.347Z,13.42
2023-05-06T05:20:37.839Z,13.51
2023-05-06T05:23:06.871Z,13.61
2023-05-06T05:25:35.364Z,13.70
2023-05-06T05:28:04.065Z,13.76
2023-05-06T05:30:32.200Z,13.94
2023-05-06T05:33:00.761Z,14.12
2023-05-06T05:35:28.909Z,14.32
2023-05-06T05:37:57.331Z,14.48
2023-05-06T05:40:25.847Z,14.69
2023-05-06T05:42:54.327Z,14.81
2023-05-06T05:45:22.807Z,14.86
2023-05-06T05:47:51.296Z,14.88
2023-05-06T05:50:19.905Z,14.88
2023-05-06T05:52:48.434Z,14.77
2023-05-06T05:55:16.986Z,14.70
2023-05-06T05:57:45.494Z,14.63
2023-05-06T06:00:14.788Z,14.59
2023-05-06T06:02:43.389Z,14.48
2023-05-06T06:05:12.041Z,14.47
2023-05-06T06:07:40.798Z,14.46
2023-05-06T06:10:09.804Z,14.51
2023-05-06T06:12:38.300Z,14.60
2023-05-06T06:15:06.959Z,14.86
2023-05-06T06:17:35.682Z,15.12
2023-05-06T06:20:05.044Z,15.44
2023-05-06T06:22:33.502Z,15.47
2023-05-06T06:25:01.939Z,15.45
2023-05-06T06:27:30.747Z,15.37
2023-05-06T06:29:59.271Z,15.29
2023-05-06T06:32:27.785Z,15.19
2023-05-06T06:34:56.289Z,15.07
2023-05-06T06:37:24.739Z,14.99
2023-05-06T06:39:53.188Z,14.92
2023-05-06T06:42:21.719Z,14.93
2023-05-06T06:44:50.234Z,14.95
2023-05-06T06:47:18.942Z,15.01
2023-05-06T06:49:47.393Z,15.08
2023-05-06T06:52:15.839Z,15.11
2023-05-06T06:54:44.342Z,15.09
2023-05-06T06:57:12.913Z,15.01
2023-05-06T06:59:41.395Z,14.88
2023-05-06T07:02:09.857Z,14.75
2023-05-06T07:04:38.540Z,14.68
2023-05-06T07:07:07.148Z,14.63
2023-05-06T07:09:35.910Z,14.62
2023-05-06T07:12:04.755Z,14.60
2023-05-06T07:14:33.249Z,14.57
2023-05-06T07:17:01.970Z,14.52
2023-05-06T07:19:31.511Z,14.51
2023-05-06T07:22:00.059Z,14.50
2023-05-06T07:24:28.538Z,14.50
2023-05-06T07:26:57.829Z,14.48
2023-05-06T07:29:26.735Z,14.50
2023-05-06T07:31:55.244Z,14.48
2023-05-06T07:34:23.752Z,14.50
2023-05-06T07:36:52.254Z,14.51
2023-05-06T07:39:20.704Z,14.42
2023-05-06T07:41:49.190Z,14.49
2023-05-06T07:44:17.644Z,14.49
2023-05-06T07:46:46.347Z,14.58
2023-05-06T07:49:14.877Z,14.63
2023-05-06T07:51:46.285Z,14.70
2023-05-06T07:54:14.755Z,14.87
2023-05-06T07:56:44.073Z,15.05
2023-05-06T07:59:12.536Z,15.26
2023-05-06T08:01:41.190Z,15.44
2023-05-06T08:04:09.723Z,15.62
2023-05-06T08:06:38.230Z,15.68
2023-05-06T08:09:06.861Z,15.72
2023-05-06T08:11:35.546Z,15.72
2023-05-06T08:14:04.005Z,15.68
2023-05-06T08:16:32.894Z,15.58
2023-05-06T08:19:01.445Z,15.43
2023-05-06T08:21:29.976Z,15.38
2023-05-06T08:23:58.318Z,15.40
2023-05-06T08:26:26.800Z,15.50
2023-05-06T08:28:56.277Z,15.65
2023-05-06T08:31:24.867Z,15.69
2023-05-06T08:33:54.709Z,15.67
2023-05-06T08:36:23.617Z,15.64
2023-05-06T08:38:52.100Z,15.66
2023-05-06T08:41:22.677Z,15.80
2023-05-06T08:43:51.684Z,15.90
2023-05-06T08:46:20.313Z,15.93
2023-05-06T08:48:48.932Z,16.02
2023-05-06T08:51:17.572Z,16.08
2023-05-06T08:53:51.611Z,16.15
2023-05-06T08:56:20.446Z,16.23
2023-05-06T08:58:49.816Z,16.29
2023-05-06T09:01:18.905Z,16.35
2023-05-06T09:03:49.133Z,16.34
2023-05-06T09:06:17.728Z,16.27
2023-05-06T09:08:46.226Z,16.26
2023-05-06T09:11:26.065Z,16.26
2023-05-06T09:14:14.086Z,16.17
2023-05-06T09:16:47.017Z,16.12
2023-05-06T09:19:18.649Z,16.08
2023-05-06T09:21:50.386Z,16.05
2023-05-06T09:24:19.204Z,15.96
2023-05-06T09:26:48.566Z,16.02
2023-05-06T09:29:17.142Z,16.06
2023-05-06T09:31:49.297Z,16.17
2023-05-06T09:34:18.159Z,16.45
2023-05-06T09:36:46.708Z,16.64
2023-05-06T09:39:15.288Z,16.79
2023-05-06T09:41:44.707Z,16.88
2023-05-06T09:44:14.097Z,16.99
2023-05-06T09:46:43.070Z,16.95
2023-05-06T09:49:11.886Z,16.85
2023-05-06T09:51:41.642Z,16.69
2023-05-06T09:54:10.436Z,16.78
2023-05-06T09:56:40.024Z,16.81
2023-05-06T09:59:08.910Z,16.83
2023-05-06T10:01:37.936Z,16.95
2023-05-06T10:04:10.946Z,17.09
2023-05-06T10:06:41.965Z,17.21
2023-05-06T10:09:10.901Z,17.34
2023-05-06T10:11:39.429Z,17.38
2023-05-06T10:14:09.288Z,17.35
2023-05-06T10:16:40.209Z,17.38
2023-05-06T10:19:09.929Z,17.37
2023-05-06T10:21:41.290Z,17.42
2023-05-06T10:24:13.259Z,17.43
2023-05-06T10:26:43.842Z,17.49
2023-05-06T10:29:12.732Z,17.34
2023-05-06T10:31:50.643Z,17.45
2023-05-06T10:34:21.861Z,17.52
2023-05-06T10:36:56.590Z,17.38
2023-05-06T10:39:25.181Z,17.37
2023-05-06T10:41:53.678Z,17.48
2023-05-06T10:45:01.165Z,17.59
2023-05-06T10:47:29.726Z,17.58
2023-05-06T10:50:21.317Z,17.57
2023-05-06T10:52:53.417Z,17.46
2023-05-06T10:55:28.778Z,17.49
2023-05-06T10:57:59.062Z,17.61
2023-05-06T11:00:27.795Z,17.76
2023-05-06T11:03:02.852Z,17.86
2023-05-06T11:05:31.723Z,18.03
2023-05-06T11:08:11.329Z,18.13
2023-05-06T11:10:40.078Z,18.18
2023-05-06T11:13:27.609Z,18.30
2023-05-06T11:15:58.245Z,18.36
2023-05-06T11:18:27.528Z,18.38
2023-05-06T11:21:01.598Z,18.21
2023-05-06T11:23:49.390Z,17.88
2023-05-06T11:26:18.450Z,17.84
2023-05-06T11:28:51.168Z,17.83
2023-05-06T11:31:19.862Z,17.90
2023-05-06T11:33:52.714Z,18.01
2023-05-06T11:36:22.052Z,18.07
2023-05-06T11:38:53.452Z,18.02
2023-05-06T11:41:24.085Z,18.01
2023-05-06T11:43:54.713Z,17.88
2023-05-06T11:46:25.475Z,17.89
2023-05-06T11:48:54.018Z,18.08
2023-05-06T11:51:26.640Z,18.00
2023-05-06T11:54:07.050Z,18.03
2023-05-06T11:56:51.223Z,18.00
2023-05-06T11:59:28.639Z,17.99
2023-05-06T12:01:59.855Z,18.03
2023-05-06T12:04:29.026Z,18.07
2023-05-06T12:06:58.037Z,18.12
2023-05-06T12:09:26.888Z,18.19
2023-05-06T12:11:56.290Z,18.20
2023-05-06T12:14:24.949Z,18.22
2023-05-06T12:16:55.973Z,18.18
2023-05-06T12:19:25.447Z,18.08
2023-05-06T12:21:54.002Z,18.01
2023-05-06T12:24:30.070Z,17.95
2023-05-06T12:26:58.556Z,17.94
2023-05-06T12:29:27.036Z,17.99
2023-05-06T12:32:12.584Z,17.97
2023-05-06T12:34:42.382Z,17.91
2023-05-06T12:37:10.944Z,17.80
2023-05-06T12:39:41.597Z,17.61
2023-05-06T12:42:10.416Z,17.54
2023-05-06T12:44:39.613Z,17.50
2023-05-06T12:47:24.680Z,17.31
2023-05-06T12:49:58.191Z,17.19
2023-05-06T12:52:30.061Z,17.23
2023-05-06T12:54:59.015Z,17.18
2023-05-06T12:57:27.675Z,17.06
2023-05-06T12:59:56.453Z,17.02
2023-05-06T13:02:25.247Z,16.95
2023-05-06T13:04:53.736Z,16.95
2023-05-06T13:07:22.597Z,16.91
2023-05-06T13:09:51.159Z,16.95
2023-05-06T13:12:19.684Z,16.89
2023-05-06T13:14:48.190Z,16.97
2023-05-06T13:17:16.852Z,17.16
2023-05-06T13:19:45.474Z,17.13
2023-05-06T13:22:14.251Z,17.20
2023-05-06T13:24:42.687Z,17.37
2023-05-06T13:27:11.665Z,17.44
2023-05-06T13:29:40.432Z,17.51
2023-05-06T13:32:09.223Z,17.58
2023-05-06T13:34:37.807Z,17.64
2023-05-06T13:37:06.338Z,17.58
2023-05-06T13:39:34.793Z,17.61
2023-05-06T13:42:06.723Z,17.70
2023-05-06T13:44:36.704Z,17.75
2023-05-06T13:47:05.177Z,17.81
2023-05-06T13:49:33.656Z,17.96
2023-05-06T13:52:02.357Z,18.01
2023-05-06T13:54:30.848Z,17.95
2023-05-06T13:56:59.405Z,18.00
2023-05-06T13:59:27.996Z,17.97
2023-05-06T14:01:57.336Z,18.00
2023-05-06T14:04:26.117Z,17.74
2023-05-06T14:06:55.250Z,17.60
2023-05-06T14:09:23.886Z,17.47
2023-05-06T14:11:52.505Z,17.48
2023-05-06T14:14:21.021Z,17.59
2023-05-06T14:16:51.736Z,17.42
2023-05-06T14:19:20.289Z,17.37
2023-05-06T14:21:48.894Z,17.27
2023-05-06T14:24:17.340Z,17.20
2023-05-06T14:26:46.168Z,17.02
2023-05-06T14:29:14.668Z,16.85
2023-05-06T14:31:43.179Z,16.83
2023-05-06T14:34:11.633Z,16.72
2023-05-06T14:36:40.108Z,16.71
2023-05-06T14:39:08.693Z,16.65
2023-05-06T14:41:37.185Z,16.66
2023-05-06T14:44:05.806Z,16.62
2023-05-06T14:46:34.104Z,16.65
2023-05-06T14:49:03.004Z,16.68
2023-05-06T14:51:32.481Z,16.78
2023-05-06T14:54:01.194Z,16.89
2023-05-06T14:56:29.706Z,16.93
2023-05-06T14:58:58.152Z,16.94
2023-05-06T15:01:26.849Z,16.99
2023-05-06T15:03:55.410Z,17.02
2023-05-06T15:06:23.901Z,17.10
2023-05-06T15:08:52.648Z,17.00
2023-05-06T15:11:21.109Z,16.94
2023-05-06T15:13:49.580Z,16.99
2023-05-06T15:16:18.141Z,16.80
2023-05-06T15:18:46.616Z,16.88
2023-05-06T15:21:15.854Z,16.79
2023-05-06T15:23:46.701Z,16.77
2023-05-06T15:26:15.376Z,16.73
2023-05-06T15:28:43.800Z,16.76
2023-05-06T15:31:12.258Z,16.87
2023-05-06T15:33:40.769Z,16.87
2023-05-06T15:36:09.425Z,16.83
2023-05-06T15:39:01.483Z,16.81
2023-05-06T15:41:32.784Z,16.67
2023-05-06T15:44:03.383Z,16.52
2023-05-06T15:46:32.545Z,16.40
2023-05-06T15:49:29.488Z,16.38
2023-05-06T15:51:50.822Z,16.27
2023-05-06T15:54:19.477Z,16.18
2023-05-06T15:56:48.141Z,16.08
2023-05-06T15:59:16.804Z,16.00
2023-05-06T16:04:17.689Z,15.90
2023-05-06T16:06:46.417Z,15.90
2023-05-06T16:09:14.998Z,15.77
2023-05-06T16:11:43.521Z,15.65
2023-05-06T16:14:13.481Z,15.61
2023-05-06T16:16:42.195Z,15.58
2023-05-06T16:19:10.992Z,15.56
2023-05-06T16:21:39.493Z,15.47
2023-05-06T16:24:08.655Z,15.38
2023-05-06T16:26:37.150Z,15.26
2023-05-06T16:29:05.574Z,15.32
2023-05-06T16:31:34.685Z,15.30
2023-05-06T16:34:03.297Z,15.23
2023-05-06T16:36:31.611Z,15.25
2023-05-06T16:39:00.135Z,15.22
2023-05-06T16:41:28.582Z,15.24
2023-05-06T16:43:57.688Z,15.25
2023-05-06T16:46:26.903Z,15.10
2023-05-06T16:48:55.915Z,15.07
2023-05-06T16:51:24.823Z,14.91
2023-05-06T16:53:53.381Z,14.88
2023-05-06T16:56:22.705Z,14.91
2023-05-06T16:58:51.251Z,14.83
2023-05-06T17:01:19.795Z,14.77
2023-05-06T17:03:48.371Z,14.54
2023-05-06T17:06:16.713Z,14.42
2023-05-06T17:08:45.322Z,14.31
2023-05-06T17:11:13.953Z,14.27
2023-05-06T17:13:42.434Z,14.11
2023-05-06T17:16:11.187Z,14.03
2023-05-06T17:18:39.421Z,13.99
2023-05-06T17:21:09.416Z,13.81
2023-05-06T17:23:37.932Z,13.73
2023-05-06T17:26:10.115Z,13.63
2023-05-06T17:28:39.048Z,13.53
2023-05-06T17:31:07.246Z,13.40
2023-05-06T17:33:35.432Z,13.26
2023-05-06T17:36:04.003Z,13.34
2023-05-06T17:38:32.173Z,13.17
2023-05-06T17:41:00.609Z,13.07
2023-05-06T17:43:28.958Z,12.89
2023-05-06T17:45:57.610Z,12.83
2023-05-06T17:48:26.106Z,12.84
2023-05-06T17:50:55.705Z,12.77
2023-05-06T17:53:24.367Z,12.75
2023-05-06T17:55:52.849Z,12.68
2023-05-06T17:58:21.511Z,12.66
2023-05-06T18:00:50.009Z,12.67
2023-05-06T18:03:18.584Z,12.50
2023-05-06T18:05:47.695Z,12.45
2023-05-06T18:08:16.148Z,12.40
2023-05-06T18:10:44.758Z,12.33
2023-05-06T18:13:13.279Z,12.33
2023-05-06T18:15:41.426Z,12.33
2023-05-06T18:18:09.622Z,12.25
2023-05-06T18:20:38.185Z,12.28
2023-05-06T18:23:06.341Z,12.17
2023-05-06T18:25:34.517Z,12.19
2023-05-06T18:28:04.994Z,12.11
2023-05-06T18:30:33.435Z,12.11
2023-05-06T18:33:02.061Z,11.99
2023-05-06T18:35:30.620Z,12.00
2023-05-06T18:37:59.264Z,12.03
2023-05-06T18:40:27.743Z,11.97
2023-05-06T18:42:57.335Z,11.84
2023-05-06T18:45:25.976Z,11.80
2023-05-06T18:47:54.653Z,11.78
2023-05-06T18:50:23.769Z,11.69
2023-05-06T18:52:52.313Z,11.67
2023-05-06T18:55:20.810Z,11.66
2023-05-06T18:57:49.318Z,11.60
2023-05-06T19:00:18.293Z,11.54
2023-05-06T19:02:46.835Z,11.43
2023-05-06T19:05:15.090Z,11.38
2023-05-06T19:07:43.703Z,11.36
2023-05-06T19:10:13.900Z,11.36
2023-05-06T19:12:42.802Z,11.31
2023-05-06T19:15:12.450Z,11.40
2023-05-06T19:17:41.507Z,11.37
2023-05-06T19:20:10.606Z,11.39
2023-05-06T19:22:39.681Z,11.30
2023-05-06T19:25:08.707Z,11.22
2023-05-06T19:27:37.285Z,11.11
2023-05-06T19:30:05.917Z,11.11
2023-05-06T19:32:34.436Z,11.12
2023-05-06T19:35:07.911Z,11.10
2023-05-06T19:37:36.743Z,11.13
2023-05-06T19:40:07.712Z,11.16
2023-05-06T19:42:36.217Z,11.10
2023-05-06T19:45:12.065Z,11.15
2023-05-06T19:47:41.002Z,11.10
2023-05-06T19:50:09.977Z,11.03
2023-05-06T19:52:38.693Z,11.05
2023-05-06T19:55:07.717Z,11.07
2023-05-06T19:57:37.071Z,11.03
2023-05-06T20:00:10.189Z,11.05
2023-05-06T20:02:39.250Z,11.18
2023-05-06T20:05:08.342Z,11.15
2023-05-06T20:07:38.313Z,11.12
2023-05-06T20:10:07.274Z,11.14
2023-05-06T20:12:35.790Z,11.14
2023-05-06T20:15:04.618Z,11.14
2023-05-06T20:17:33.266Z,11.21
2023-05-06T20:20:09.273Z,11.22
2023-05-06T20:22:39.702Z,11.24
2023-05-06T20:25:14.541Z,11.22
2023-05-06T20:27:43.287Z,11.25
2023-05-06T20:30:12.381Z,11.21
2023-05-06T20:32:41.742Z,11.19
2023-05-06T20:35:10.927Z,11.27
2023-05-06T20:37:41.297Z,11.34
2023-05-06T20:40:10.747Z,11.31
2023-05-06T20:42:39.442Z,11.36
2023-05-06T20:45:08.581Z,11.41
2023-05-06T20:47:37.195Z,11.35
2023-05-06T20:50:05.908Z,11.31
2023-05-06T20:52:35.068Z,11.30
2023-05-06T20:55:03.817Z,11.38
2023-05-06T20:57:32.253Z,11.33
2023-05-06T21:00:00.370Z,11.29
2023-05-06T21:02:32.026Z,11.27
2023-05-06T21:05:01.142Z,11.26
2023-05-06T21:07:29.784Z,11.25
2023-05-06T21:09:58.215Z,11.27
2023-05-06T21:12:27.763Z,11.23
2023-05-06T21:14:56.294Z,11.25
2023-05-06T21:17:24.442Z,11.22
2023-05-06T21:19:53.560Z,11.25
2023-05-06T21:22:25.467Z,11.24
2023-05-06T21:24:53.531Z,11.25
2023-05-06T21:27:21.976Z,11.21
2023-05-06T21:29:50.417Z,11.25
2023-05-06T21:32:19.118Z,11.20
2023-05-06T21:34:47.995Z,11.19
2023-05-06T21:37:16.903Z,11.24
2023-05-06T21:39:46.035Z,11.24
2023-05-06T21:42:14.789Z,11.24
2023-05-06T21:44:43.146Z,11.19
2023-05-06T21:47:11.598Z,11.13
2023-05-06T21:49:40.445Z,11.15
2023-05-06T21:52:08.972Z,11.18
2023-05-06T21:54:37.430Z,11.15
2023-05-06T21:57:08.250Z,11.11
2023-05-06T21:59:36.967Z,11.09
2023-05-06T22:02:05.891Z,11.07
2023-05-06T22:04:34.455Z,11.08
2023-05-06T22:07:02.983Z,11.15
2023-05-06T22:09:31.433Z,11.21
2023-05-06T22:11:59.868Z,11.16
2023-05-06T22:14:37.428Z,11.14
2023-05-06T22:17:10.592Z,11.14
2023-05-06T22:19:40.814Z,11.09
2023-05-06T22:22:09.485Z,11.03
2023-05-06T22:24:37.960Z,11.01
2023-05-06T22:27:06.391Z,11.04
2023-05-06T22:29:35.083Z,10.90
2023-05-06T22:32:03.719Z,11.04
2023-05-06T22:34:32.352Z,11.06
2023-05-06T22:37:01.260Z,11.01
2023-05-06T22:39:29.896Z,11.05
2023-05-06T22:41:58.367Z,11.00
2023-05-06T22:44:26.390Z,11.00
2023-05-06T22:46:54.943Z,11.08
2023-05-06T22:49:23.495Z,10.97
2023-05-06T22:51:52.172Z,10.91
2023-05-06T22:54:20.596Z,10.89
2023-05-06T22:56:49.350Z,10.84
2023-05-06T22:59:17.922Z,10.72
2023-05-06T23:01:46.587Z,10.74
2023-05-06T23:04:15.268Z,10.71
2023-05-06T23:06:44.510Z,10.73
2023-05-06T23:09:13.548Z,10.77
2023-05-06T23:11:44.764Z,10.69
2023-05-06T23:14:13.836Z,10.56
2023-05-06T23:16:42.406Z,10.49
2023-05-06T23:19:11.108Z,10.51
2023-05-06T23:21:41.461Z,10.52
2023-05-06T23:24:10.283Z,10.49
2023-05-06T23:26:38.746Z,10.53
2023-05-06T23:29:07.179Z,10.46
2023-05-06T23:31:35.715Z,10.44
2023-05-06T23:34:04.423Z,10.44
2023-05-06T23:36:32.500Z,10.49
2023-05-06T23:39:01.020Z,10.50
2023-05-06T23:41:29.472Z,10.38
2023-05-06T23:43:57.909Z,10.41
2023-05-06T23:46:26.462Z,10.33
2023-05-06T23:48:54.938Z,10.24
2023-05-06T23:51:23.339Z,10.16
2023-05-06T23:53:51.456Z,10.19
2023-05-06T23:56:20.623Z,10.15
2023-05-06T23:58:49.071Z,10.00
